McCune, Kansas
Current Conditions -  °F | °C
As of 8:55 AM on Friday 19 Dec 2014 (Local Time) from KPTS Reporting Station
Haze Haze  
Wind Chill: 32°   Ceiling: 300
Heat Index: 36°   Visibility: 2mi
Dew Point: 36°   Wind: 5mph
Humidity: 100%   Direction: 40°NE
Pressure: 30.25"   Gusts: NA
Location:  37.35°N, 95.02°W
Report Text: KPTS 191455Z AUTO 04004KT 2SM BR OVC003 02/02 A3025 RMK AO2 T00200021
Loading
Personal Weather Stations






























Interactive Weather Map New forecast layout! Learn more

10-Day Weather Forecast

Advertisements
Track Severe Weather on mobile